Time;durP1;ratioP1;P1;durP2;ratioP2;P2;SDS_P1;SDS_P2;PMS_P1;PMS_P2;Temp;Humidity;BMP_temperature;BMP_pressure;BME280_temperature;BME280_humidity;BME280_pressure;Samples;Min_cycle;Max_cycle;Signal;HPM_P1;HPM_P2
2023/11/22 00:01:10;;;;;;;10.27;5.53;;;5.60;99.90;;;;;;6151905;23;20067;-86
2023/11/22 00:03:36;;;;;;;12.63;5.68;;;5.60;99.90;;;;;;6153780;23;20010;-86
2023/11/22 00:06:02;;;;;;;14.35;5.53;;;5.60;99.90;;;;;;6153613;22;20010;-86
2023/11/22 00:08:29;;;;;;;9.70;5.55;;;5.60;99.90;;;;;;6152517;22;20016;-86
2023/11/22 00:10:55;;;;;;;7.75;5.00;;;5.60;99.90;;;;;;6154283;23;20009;-85
2023/11/22 00:13:20;;;;;;;11.23;6.10;;;5.70;99.90;;;;;;6152662;22;20031;-87
2023/11/22 00:15:46;;;;;;;12.63;6.05;;;5.60;99.90;;;;;;6152276;23;20423;-84
2023/11/22 00:18:12;;;;;;;10.38;6.07;;;5.60;99.90;;;;;;6151318;23;20067;-82
2023/11/22 00:20:39;;;;;;;12.90;5.45;;;5.60;99.90;;;;;;6153383;23;20108;-85
2023/11/22 00:23:05;;;;;;;10.18;5.97;;;5.60;99.90;;;;;;6153240;23;20010;-83
2023/11/22 00:25:32;;;;;;;10.77;6.25;;;5.60;99.90;;;;;;6154073;23;20391;-82
2023/11/22 00:27:58;;;;;;;10.07;5.32;;;5.60;99.90;;;;;;6154684;23;20013;-82
2023/11/22 00:30:24;;;;;;;25.17;5.90;;;5.60;99.90;;;;;;6152769;23;20006;-83
2023/11/22 00:32:49;;;;;;;12.73;5.80;;;5.60;99.90;;;;;;6150920;22;20009;-84
2023/11/22 00:35:15;;;;;;;11.60;5.70;;;5.60;99.90;;;;;;6151274;22;20020;-84
2023/11/22 00:37:41;;;;;;;14.93;5.18;;;5.60;99.90;;;;;;6151029;23;20019;-84
2023/11/22 00:40:10;;;;;;;12.45;6.43;;;5.60;99.90;;;;;;6153780;23;20006;-83
2023/11/22 00:42:39;;;;;;;12.32;6.90;;;5.60;99.90;;;;;;6152876;23;20006;-83
2023/11/22 00:45:06;;;;;;;11.80;6.78;;;5.60;99.90;;;;;;6151491;23;20092;-84
2023/11/22 00:47:33;;;;;;;12.80;6.50;;;5.60;99.90;;;;;;6152295;23;20078;-83
2023/11/22 00:49:58;;;;;;;9.90;6.28;;;5.60;99.90;;;;;;6152162;23;20045;-83
2023/11/22 00:52:24;;;;;;;10.57;6.22;;;5.60;99.90;;;;;;6153573;23;20009;-83
2023/11/22 00:54:50;;;;;;;9.73;6.10;;;5.60;99.90;;;;;;6152568;23;20012;-84
2023/11/22 00:57:16;;;;;;;11.05;6.43;;;5.60;99.90;;;;;;6152167;23;20617;-83
2023/11/22 00:59:43;;;;;;;12.43;6.25;;;5.60;99.90;;;;;;6152475;23;20016;-84
2023/11/22 01:02:09;;;;;;;10.48;6.35;;;5.60;99.90;;;;;;6152447;23;20002;-83
2023/11/22 01:04:36;;;;;;;10.15;6.60;;;5.60;99.90;;;;;;6151257;23;20032;-85
2023/11/22 01:07:04;;;;;;;9.90;5.97;;;5.60;99.90;;;;;;6150421;23;20013;-85
2023/11/22 01:09:31;;;;;;;11.80;7.43;;;5.60;99.90;;;;;;6151691;22;20005;-83
2023/11/22 01:11:57;;;;;;;8.63;5.55;;;5.60;99.90;;;;;;6152824;23;20479;-85
2023/11/22 01:14:23;;;;;;;15.20;6.65;;;5.60;99.90;;;;;;6152441;23;20006;-84
2023/11/22 01:16:50;;;;;;;13.75;6.93;;;5.60;99.90;;;;;;6151583;23;20013;-84
2023/11/22 01:19:16;;;;;;;14.35;7.07;;;5.60;99.90;;;;;;6153778;23;20025;-83
2023/11/22 01:21:42;;;;;;;20.27;7.07;;;5.60;99.90;;;;;;6155058;23;20466;-84
2023/11/22 01:24:08;;;;;;;12.20;6.63;;;5.60;99.90;;;;;;6155570;22;20074;-84
2023/11/22 01:26:34;;;;;;;11.60;7.25;;;5.60;99.90;;;;;;6153276;22;20005;-84
2023/11/22 01:29:00;;;;;;;8.90;5.72;;;5.60;99.90;;;;;;6153127;22;20009;-84
2023/11/22 01:31:27;;;;;;;11.50;6.60;;;5.60;99.90;;;;;;6155075;23;20029;-84
2023/11/22 01:33:53;;;;;;;12.43;6.63;;;5.60;99.90;;;;;;6153854;22;20010;-84
2023/11/22 01:36:19;;;;;;;12.77;6.70;;;5.60;99.90;;;;;;6152564;22;20009;-85
2023/11/22 01:38:46;;;;;;;15.73;6.70;;;5.50;99.90;;;;;;6152867;23;20066;-84
2023/11/22 01:41:13;;;;;;;11.55;6.53;;;5.60;99.90;;;;;;6152543;22;20001;-83
2023/11/22 01:43:41;;;;;;;13.77;6.57;;;5.60;99.90;;;;;;6152206;23;20005;-84
2023/11/22 01:46:17;;;;;;;10.90;6.75;;;5.60;99.90;;;;;;6153833;23;20006;-85
2023/11/22 01:48:42;;;;;;;10.13;6.45;;;5.60;99.90;;;;;;6153440;22;20008;-85
2023/11/22 01:51:08;;;;;;;13.45;7.05;;;5.60;99.90;;;;;;6153920;22;20771;-85
2023/11/22 01:53:40;;;;;;;11.82;6.60;;;5.60;99.90;;;;;;6153305;23;20092;-85
2023/11/22 01:56:06;;;;;;;12.13;7.38;;;5.60;99.90;;;;;;6121776;22;20093;-85
2023/11/22 01:58:32;;;;;;;13.10;7.40;;;5.60;99.90;;;;;;6153804;23;20009;-85
2023/11/22 02:00:59;;;;;;;12.00;7.43;;;5.50;99.90;;;;;;6153431;23;20006;-84
2023/11/22 02:03:25;;;;;;;12.52;7.47;;;5.50;99.90;;;;;;6153951;23;20071;-85
2023/11/22 02:05:51;;;;;;;11.07;6.88;;;5.50;99.90;;;;;;6153144;22;20795;-85
2023/11/22 02:08:18;;;;;;;11.20;6.45;;;5.50;99.90;;;;;;6152129;23;20009;-84
2023/11/22 02:10:44;;;;;;;14.50;8.05;;;5.60;99.90;;;;;;6152285;22;20006;-84
2023/11/22 02:13:10;;;;;;;15.07;7.68;;;5.60;99.90;;;;;;6153201;22;20005;-84
2023/11/22 02:15:37;;;;;;;14.07;7.97;;;5.60;99.90;;;;;;6155596;22;20036;-85
2023/11/22 02:18:03;;;;;;;18.27;7.72;;;5.60;99.90;;;;;;6151683;23;20009;-84
2023/11/22 02:20:30;;;;;;;12.35;7.70;;;5.60;99.90;;;;;;6152361;23;20009;-84
2023/11/22 02:22:56;;;;;;;11.90;7.80;;;5.60;99.90;;;;;;6151766;23;20033;-85
2023/11/22 02:25:22;;;;;;;14.68;8.80;;;5.50;99.90;;;;;;6152193;23;20029;-85
2023/11/22 02:27:48;;;;;;;11.77;7.03;;;5.50;99.90;;;;;;6150936;23;20032;-85
2023/11/22 02:30:16;;;;;;;11.15;7.60;;;5.50;99.90;;;;;;6153404;23;20008;-83
2023/11/22 02:32:42;;;;;;;12.45;7.13;;;5.60;99.90;;;;;;6149666;23;20020;-85
2023/11/22 02:35:08;;;;;;;12.45;7.43;;;5.60;99.90;;;;;;6149167;23;20005;-85
2023/11/22 02:37:35;;;;;;;13.27;7.30;;;5.60;99.90;;;;;;6148721;22;20014;-85
2023/11/22 02:40:21;;;;;;;12.50;7.70;;;5.50;99.90;;;;;;6148010;23;20005;-84
2023/11/22 02:42:51;;;;;;;10.73;6.57;;;5.50;99.90;;;;;;6149070;23;20347;-85
2023/11/22 02:45:18;;;;;;;15.27;7.68;;;5.50;99.90;;;;;;6149509;23;20013;-82
2023/11/22 02:47:46;;;;;;;11.30;6.68;;;5.50;99.90;;;;;;6151306;23;20447;-84
2023/11/22 02:50:12;;;;;;;12.05;7.35;;;5.50;99.90;;;;;;6149465;23;20021;-84
2023/11/22 02:52:38;;;;;;;11.60;6.65;;;5.50;99.90;;;;;;6151586;22;20012;-85
2023/11/22 02:55:05;;;;;;;14.15;7.18;;;5.50;99.90;;;;;;6153488;22;20040;-84
2023/11/22 02:57:31;;;;;;;12.90;7.88;;;5.50;99.90;;;;;;6152053;23;20317;-83
2023/11/22 02:59:57;;;;;;;11.23;6.40;;;5.50;99.90;;;;;;6151160;23;20028;-82
2023/11/22 03:02:23;;;;;;;15.55;7.43;;;5.50;99.90;;;;;;6150843;23;20336;-84
2023/11/22 03:04:53;;;;;;;11.95;6.35;;;5.50;99.90;;;;;;6153053;23;20006;-85
2023/11/22 03:07:20;;;;;;;12.38;6.95;;;5.50;99.90;;;;;;6153178;22;20027;-85
2023/11/22 03:09:46;;;;;;;11.32;6.18;;;5.50;99.90;;;;;;6152097;22;20695;-85
2023/11/22 03:12:12;;;;;;;14.23;6.25;;;5.50;99.90;;;;;;6152222;23;20021;-84
2023/11/22 03:14:39;;;;;;;10.25;6.22;;;5.50;99.90;;;;;;6153789;23;20010;-84
2023/11/22 03:17:05;;;;;;;10.90;6.70;;;5.40;99.90;;;;;;6153833;22;20009;-84
2023/11/22 03:19:33;;;;;;;15.65;7.97;;;5.40;99.90;;;;;;6116770;22;20550;-84
2023/11/22 03:22:02;;;;;;;10.77;6.50;;;5.40;99.90;;;;;;6153861;22;20024;-85
2023/11/22 03:24:34;;;;;;;15.73;6.85;;;5.40;99.90;;;;;;6152667;23;20037;-84
2023/11/22 03:27:01;;;;;;;10.30;6.30;;;5.40;99.90;;;;;;6152908;23;20106;-84
2023/11/22 03:29:27;;;;;;;12.75;7.03;;;5.30;99.90;;;;;;6151111;23;20701;-84
2023/11/22 03:31:53;;;;;;;10.90;6.53;;;5.40;99.90;;;;;;6151905;23;20024;-83
2023/11/22 03:34:22;;;;;;;13.82;6.82;;;5.30;99.90;;;;;;6155240;23;20001;-83
2023/11/22 03:36:48;;;;;;;11.43;6.45;;;5.40;99.90;;;;;;6151662;22;20013;-83
2023/11/22 03:39:16;;;;;;;10.90;5.95;;;5.40;99.90;;;;;;6151190;22;20059;-84
2023/11/22 03:41:42;;;;;;;14.23;6.35;;;5.40;99.90;;;;;;6149331;23;20463;-83
2023/11/22 03:44:08;;;;;;;10.88;6.00;;;5.30;99.90;;;;;;6150603;23;20093;-84
2023/11/22 03:46:35;;;;;;;11.05;6.63;;;5.30;99.90;;;;;;6150995;23;20339;-85
2023/11/22 03:49:06;;;;;;;17.10;6.15;;;5.30;99.90;;;;;;6154562;23;20017;-84
2023/11/22 03:51:33;;;;;;;12.02;6.60;;;5.30;99.90;;;;;;6146542;23;20021;-85
2023/11/22 03:53:59;;;;;;;11.88;7.05;;;5.30;99.90;;;;;;6153428;23;20065;-84
2023/11/22 03:56:25;;;;;;;11.57;6.00;;;5.30;99.90;;;;;;6154020;23;20002;-85
2023/11/22 03:58:51;;;;;;;12.52;7.70;;;5.30;99.90;;;;;;6153098;23;20028;-85
2023/11/22 04:01:18;;;;;;;11.82;6.65;;;5.30;99.90;;;;;;6153396;22;20446;-85
2023/11/22 04:03:44;;;;;;;10.93;5.82;;;5.20;99.90;;;;;;6153102;23;20002;-85
2023/11/22 04:06:10;;;;;;;11.60;7.15;;;5.20;99.90;;;;;;6154901;22;20013;-85
2023/11/22 04:08:37;;;;;;;11.43;6.55;;;5.00;99.90;;;;;;6153817;23;20002;-85
2023/11/22 04:11:05;;;;;;;12.35;6.72;;;5.00;99.90;;;;;;6153840;23;20232;-85
2023/11/22 04:13:31;;;;;;;13.90;7.22;;;4.90;99.90;;;;;;6152117;23;20066;-85
2023/11/22 04:15:57;;;;;;;12.27;6.53;;;4.80;99.90;;;;;;6152967;23;20009;-85
2023/11/22 04:18:26;;;;;;;13.00;6.88;;;4.70;99.90;;;;;;6151697;23;20013;-84
2023/11/22 04:20:52;;;;;;;12.13;7.07;;;4.70;99.90;;;;;;6131751;22;20026;-84
2023/11/22 04:23:18;;;;;;;12.63;6.57;;;4.60;99.90;;;;;;6151902;23;20005;-85
2023/11/22 04:25:44;;;;;;;12.35;5.88;;;4.50;99.90;;;;;;6154247;22;20436;-84
2023/11/22 04:28:10;;;;;;;14.63;5.63;;;4.50;99.90;;;;;;6153795;23;20054;-85
2023/11/22 04:30:36;;;;;;;12.00;5.82;;;4.50;99.90;;;;;;6152581;23;20001;-85
2023/11/22 04:33:01;;;;;;;9.98;6.30;;;4.40;99.90;;;;;;6152503;23;20016;-86
2023/11/22 04:35:27;;;;;;;10.85;6.07;;;4.40;99.90;;;;;;6152629;23;20065;-85
2023/11/22 04:37:56;;;;;;;9.85;5.43;;;4.30;99.90;;;;;;6154144;23;20006;-86
2023/11/22 04:40:21;;;;;;;9.82;5.88;;;4.30;99.90;;;;;;6152949;23;20103;-86
2023/11/22 04:42:48;;;;;;;11.32;6.22;;;4.20;99.90;;;;;;6152478;22;20434;-84
2023/11/22 04:45:14;;;;;;;9.02;5.28;;;4.10;99.90;;;;;;6151634;23;20001;-86
2023/11/22 04:47:40;;;;;;;7.47;5.13;;;4.10;99.90;;;;;;6152761;23;20031;-85
2023/11/22 04:50:06;;;;;;;9.30;5.50;;;4.10;99.90;;;;;;6151607;22;20020;-85
2023/11/22 04:52:32;;;;;;;8.98;5.28;;;4.10;99.90;;;;;;6152301;23;20018;-86
2023/11/22 04:54:58;;;;;;;9.25;5.97;;;4.00;99.90;;;;;;6152675;23;20005;-85
2023/11/22 04:57:24;;;;;;;9.63;5.63;;;4.00;99.90;;;;;;6153168;23;20085;-85
2023/11/22 04:59:50;;;;;;;9.75;5.57;;;3.90;99.90;;;;;;6153570;23;20466;-85
2023/11/22 05:02:16;;;;;;;11.80;6.07;;;3.90;99.90;;;;;;6154499;23;20040;-85
2023/11/22 05:04:42;;;;;;;9.75;6.03;;;3.90;99.90;;;;;;6153409;22;20012;-86
2023/11/22 05:07:08;;;;;;;10.68;6.03;;;3.80;99.90;;;;;;6155701;23;20093;-84
2023/11/22 05:09:34;;;;;;;9.75;5.82;;;3.80;99.90;;;;;;6152850;23;20055;-85
2023/11/22 05:12:00;;;;;;;14.23;7.35;;;3.70;99.90;;;;;;6153435;23;20002;-86
2023/11/22 05:14:26;;;;;;;12.27;6.55;;;3.60;99.90;;;;;;6151536;22;20096;-85
2023/11/22 05:16:52;;;;;;;12.13;5.95;;;3.50;99.90;;;;;;6154199;23;20010;-86
2023/11/22 05:19:19;;;;;;;11.40;6.72;;;3.40;99.90;;;;;;6152616;23;20516;-86
2023/11/22 05:21:44;;;;;;;17.05;7.15;;;3.40;99.90;;;;;;6152427;23;20006;-85
2023/11/22 05:24:10;;;;;;;10.10;5.78;;;3.30;99.90;;;;;;6153112;22;20033;-85
2023/11/22 05:26:36;;;;;;;13.85;6.70;;;3.30;99.90;;;;;;6152049;22;20056;-85
2023/11/22 05:29:04;;;;;;;11.65;6.72;;;3.20;99.90;;;;;;6152041;22;20762;-86
2023/11/22 05:31:30;;;;;;;12.15;6.10;;;3.20;99.90;;;;;;6154862;23;20005;-85
2023/11/22 05:33:56;;;;;;;10.02;5.50;;;3.20;99.90;;;;;;6152010;23;20016;-85
2023/11/22 05:36:22;;;;;;;10.80;5.60;;;3.10;99.90;;;;;;6155114;23;20108;-85
2023/11/22 05:38:49;;;;;;;10.55;5.78;;;3.10;99.90;;;;;;6154027;23;20013;-86
2023/11/22 05:41:16;;;;;;;12.48;5.65;;;2.90;99.90;;;;;;6153090;22;20346;-86
2023/11/22 05:43:42;;;;;;;10.18;5.88;;;2.90;99.90;;;;;;6153701;23;20063;-87
2023/11/22 05:46:09;;;;;;;12.68;5.28;;;2.90;99.90;;;;;;6154630;23;20006;-86
2023/11/22 05:48:35;;;;;;;9.80;5.63;;;2.90;99.90;;;;;;6153898;23;20006;-86
2023/11/22 05:51:00;;;;;;;11.57;5.97;;;2.90;99.90;;;;;;6154749;23;20024;-86
2023/11/22 05:53:26;;;;;;;9.57;5.78;;;2.90;99.90;;;;;;6154681;23;20028;-85
2023/11/22 05:55:52;;;;;;;10.82;5.20;;;2.90;99.90;;;;;;6153527;23;20071;-85
2023/11/22 05:58:18;;;;;;;9.63;5.55;;;2.80;99.90;;;;;;6149059;22;20033;-85
2023/11/22 06:00:47;;;;;;;11.82;5.65;;;2.90;99.90;;;;;;6152757;23;20013;-86
2023/11/22 06:03:13;;;;;;;10.77;5.95;;;2.80;99.90;;;;;;6156919;23;20002;-86
2023/11/22 06:05:40;;;;;;;14.20;6.35;;;2.90;99.90;;;;;;6154344;23;20001;-86
2023/11/22 06:08:06;;;;;;;9.43;5.30;;;2.80;99.90;;;;;;6151779;22;20368;-86
2023/11/22 06:10:34;;;;;;;10.80;6.00;;;2.80;99.90;;;;;;6152012;23;20018;-86
2023/11/22 06:13:00;;;;;;;9.35;5.00;;;2.80;99.90;;;;;;6150755;23;20005;-86
2023/11/22 06:15:26;;;;;;;10.00;5.88;;;2.70;99.90;;;;;;6152399;23;20102;-87
2023/11/22 06:17:52;;;;;;;13.20;6.28;;;2.60;99.90;;;;;;6149188;22;20065;-86
2023/11/22 06:20:18;;;;;;;10.27;5.40;;;2.60;99.90;;;;;;6149581;23;20009;-86
2023/11/22 06:22:44;;;;;;;11.93;6.40;;;2.60;99.90;;;;;;6149110;23;20074;-86
2023/11/22 06:25:10;;;;;;;11.40;6.00;;;2.50;99.90;;;;;;6149611;22;20002;-86
2023/11/22 06:27:37;;;;;;;13.10;6.35;;;2.50;99.90;;;;;;6150047;23;20014;-85
2023/11/22 06:30:03;;;;;;;10.52;6.15;;;2.40;99.90;;;;;;6149809;23;20017;-85
2023/11/22 06:32:29;;;;;;;10.02;5.63;;;2.40;99.90;;;;;;6150350;23;20017;-86
2023/11/22 06:34:54;;;;;;;12.68;6.28;;;2.30;99.90;;;;;;6151591;22;20335;-86
2023/11/22 06:37:20;;;;;;;9.27;4.80;;;2.30;99.90;;;;;;6150887;23;20010;-86
2023/11/22 06:39:46;;;;;;;10.65;6.03;;;2.30;99.90;;;;;;6151876;22;20005;-86
2023/11/22 06:42:13;;;;;;;8.52;4.97;;;2.20;99.90;;;;;;6150730;23;20010;-86
2023/11/22 06:44:39;;;;;;;8.60;4.95;;;2.20;99.90;;;;;;6150713;23;20014;-86
2023/11/22 06:47:07;;;;;;;10.02;5.78;;;2.20;99.90;;;;;;6150072;22;20564;-86
2023/11/22 06:49:33;;;;;;;10.90;5.95;;;2.20;99.90;;;;;;6150400;23;20016;-85
2023/11/22 06:51:59;;;;;;;10.05;5.82;;;2.20;99.90;;;;;;6151073;23;20020;-86
2023/11/22 06:54:25;;;;;;;9.10;4.93;;;2.20;99.90;;;;;;6151410;23;20009;-86
2023/11/22 06:56:51;;;;;;;10.90;6.38;;;2.20;99.90;;;;;;6150405;23;20556;-86
2023/11/22 06:59:17;;;;;;;10.77;6.63;;;2.10;99.90;;;;;;6149711;23;20002;-86
2023/11/22 07:01:43;;;;;;;12.63;5.32;;;2.10;99.90;;;;;;6151319;22;20517;-84
2023/11/22 07:04:09;;;;;;;11.00;5.57;;;2.10;99.90;;;;;;6151216;23;20005;-86
2023/11/22 07:06:37;;;;;;;12.38;6.38;;;2.10;99.90;;;;;;6151218;23;20005;-86
2023/11/22 07:09:09;;;;;;;8.93;5.07;;;2.10;99.90;;;;;;6150814;23;20084;-86
2023/11/22 07:11:36;;;;;;;14.98;5.85;;;2.10;99.90;;;;;;6150633;22;20009;-85
2023/11/22 07:14:06;;;;;;;9.00;4.93;;;2.10;99.90;;;;;;6150950;23;20017;-85
2023/11/22 07:16:35;;;;;;;10.98;5.97;;;2.10;99.90;;;;;;6151877;23;20009;-86
2023/11/22 07:19:06;;;;;;;10.98;5.95;;;2.10;99.90;;;;;;6151149;23;20009;-86
2023/11/22 07:21:33;;;;;;;10.23;6.72;;;2.10;99.90;;;;;;6150177;23;20689;-86
2023/11/22 07:23:59;;;;;;;8.07;5.20;;;2.20;99.90;;;;;;6151365;23;20005;-85
2023/11/22 07:26:26;;;;;;;8.38;5.15;;;2.20;99.90;;;;;;6150993;23;20013;-86
2023/11/22 07:28:53;;;;;;;8.80;5.25;;;2.20;99.90;;;;;;6150855;22;20009;-86
2023/11/22 07:31:19;;;;;;;9.80;5.55;;;2.20;99.90;;;;;;6151465;23;20019;-85
2023/11/22 07:33:46;;;;;;;11.20;5.07;;;2.20;99.90;;;;;;6152074;23;20085;-86
2023/11/22 07:36:15;;;;;;;8.85;5.45;;;2.30;99.90;;;;;;6157754;23;20043;-85
2023/11/22 07:38:42;;;;;;;12.13;5.88;;;2.30;99.90;;;;;;6151800;22;20397;-87
2023/11/22 07:41:11;;;;;;;9.02;5.35;;;2.30;99.90;;;;;;6152356;23;20036;-87
2023/11/22 07:43:37;;;;;;;10.65;5.20;;;2.30;99.90;;;;;;6152109;23;20006;-87
2023/11/22 07:46:12;;;;;;;10.13;4.65;;;2.40;99.90;;;;;;6152752;23;20013;-87
2023/11/22 07:48:41;;;;;;;11.77;4.93;;;2.40;99.90;;;;;;6151521;22;20005;-86
2023/11/22 07:51:08;;;;;;;11.52;5.05;;;2.50;99.90;;;;;;6152618;23;20020;-87
2023/11/22 07:53:35;;;;;;;7.63;4.57;;;2.50;99.90;;;;;;6152640;22;20021;-87
2023/11/22 07:56:04;;;;;;;10.60;4.90;;;2.50;99.90;;;;;;6152401;22;20002;-87
2023/11/22 07:58:35;;;;;;;11.15;4.63;;;2.60;99.90;;;;;;6154166;22;20029;-87
2023/11/22 08:01:05;;;;;;;10.63;5.35;;;2.60;99.90;;;;;;6155527;22;20018;-87
2023/11/22 08:03:31;;;;;;;9.02;5.32;;;2.60;99.90;;;;;;6152889;22;20585;-87
2023/11/22 08:05:56;;;;;;;11.77;6.25;;;2.60;99.90;;;;;;6153741;23;19998;-87
2023/11/22 08:08:23;;;;;;;12.48;6.13;;;2.60;99.90;;;;;;6151583;23;20061;-87
2023/11/22 08:10:53;;;;;;;11.35;6.18;;;2.60;99.90;;;;;;6152982;22;20009;-87
2023/11/22 08:13:19;;;;;;;19.23;6.97;;;2.60;99.90;;;;;;6152398;22;20058;-87
2023/11/22 08:15:48;;;;;;;13.77;5.40;;;2.60;99.90;;;;;;6152248;23;20002;-87
2023/11/22 08:18:16;;;;;;;15.95;7.00;;;2.70;99.90;;;;;;6151710;23;20009;-87
2023/11/22 08:20:43;;;;;;;13.93;5.50;;;2.70;99.90;;;;;;6153126;23;20411;-87
2023/11/22 08:23:10;;;;;;;11.73;5.20;;;2.70;99.90;;;;;;6165148;23;20014;-88
2023/11/22 08:25:38;;;;;;;14.50;5.72;;;2.60;99.90;;;;;;6153163;23;20031;-88
2023/11/22 08:28:04;;;;;;;9.63;4.95;;;2.70;99.90;;;;;;6152585;23;20006;-87
2023/11/22 08:30:32;;;;;;;29.25;9.93;;;2.70;99.90;;;;;;6153090;22;20009;-86
2023/11/22 08:32:58;;;;;;;46.72;16.48;;;2.80;99.90;;;;;;6152552;22;20029;-88
2023/11/22 08:35:24;;;;;;;26.90;10.65;;;2.80;99.90;;;;;;6151695;23;20013;-88
2023/11/22 08:37:50;;;;;;;11.43;6.22;;;2.80;99.90;;;;;;6151972;23;20010;-87
2023/11/22 08:40:20;;;;;;;8.48;5.60;;;2.90;99.90;;;;;;6152730;22;20001;-87
2023/11/22 08:42:46;;;;;;;9.18;5.35;;;2.90;99.90;;;;;;6152198;23;20526;-87
2023/11/22 08:45:12;;;;;;;13.00;5.65;;;2.90;99.90;;;;;;6152259;23;20467;-87
2023/11/22 08:47:41;;;;;;;9.82;5.47;;;2.90;99.90;;;;;;6151920;23;20012;-87
2023/11/22 08:50:11;;;;;;;8.68;4.82;;;3.00;99.90;;;;;;6151497;23;20025;-88
2023/11/22 08:52:38;;;;;;;9.80;5.05;;;3.00;99.90;;;;;;6151114;23;20009;-87
2023/11/22 08:55:07;;;;;;;9.18;5.03;;;3.00;99.90;;;;;;6151809;23;20424;-87
2023/11/22 08:57:37;;;;;;;9.57;4.55;;;3.00;99.90;;;;;;6151421;23;20017;-87
2023/11/22 09:00:08;;;;;;;11.20;5.50;;;3.10;99.90;;;;;;6152213;23;20092;-87
2023/11/22 09:02:36;;;;;;;10.68;4.82;;;3.30;99.90;;;;;;6152327;23;20459;-87
2023/11/22 09:05:06;;;;;;;8.90;4.95;;;3.30;99.90;;;;;;6152655;23;20408;-88
2023/11/22 09:07:33;;;;;;;11.63;5.15;;;3.40;99.90;;;;;;6151629;23;20048;-88
2023/11/22 09:09:59;;;;;;;8.48;4.20;;;3.50;99.90;;;;;;6151882;23;20073;-87
2023/11/22 09:12:27;;;;;;;8.55;3.85;;;3.50;99.90;;;;;;6152042;23;20009;-87
2023/11/22 09:14:53;;;;;;;7.95;3.28;;;3.60;99.90;;;;;;6152252;23;20017;-87
2023/11/22 09:17:20;;;;;;;13.93;5.20;;;3.70;99.90;;;;;;6152660;23;20018;-88
2023/11/22 09:19:46;;;;;;;6.68;4.15;;;3.80;99.90;;;;;;6152920;23;20004;-88
2023/11/22 09:22:13;;;;;;;6.90;2.60;;;3.80;99.90;;;;;;6154558;23;20018;-87
2023/11/22 09:24:40;;;;;;;8.02;4.15;;;3.90;99.90;;;;;;6153738;23;20006;-87
2023/11/22 09:27:05;;;;;;;9.05;4.22;;;4.00;99.90;;;;;;6152735;23;20037;-87
2023/11/22 09:29:32;;;;;;;5.30;3.17;;;4.10;99.90;;;;;;6152891;23;20352;-86
2023/11/22 09:32:00;;;;;;;9.02;3.97;;;4.40;99.90;;;;;;6151642;23;20033;-87
2023/11/22 09:34:27;;;;;;;5.47;3.78;;;4.70;99.90;;;;;;6151497;23;20006;-85
2023/11/22 09:36:54;;;;;;;7.28;4.18;;;5.00;99.90;;;;;;6151569;22;20014;-87
2023/11/22 09:39:21;;;;;;;6.78;3.33;;;5.40;99.90;;;;;;6150625;23;20028;-87
2023/11/22 09:41:48;;;;;;;8.88;4.00;;;5.70;99.90;;;;;;6151379;23;20013;-87
2023/11/22 09:44:16;;;;;;;7.95;4.15;;;6.20;99.90;;;;;;6151570;23;20051;-87
2023/11/22 09:46:43;;;;;;;7.93;3.65;;;6.30;99.90;;;;;;6150152;23;20454;-87
2023/11/22 09:49:14;;;;;;;5.38;2.60;;;6.40;99.90;;;;;;6151136;23;20006;-87
2023/11/22 09:51:44;;;;;;;5.53;3.30;;;6.40;99.90;;;;;;6151329;23;20021;-87
2023/11/22 09:54:14;;;;;;;6.28;3.05;;;6.30;99.90;;;;;;6163145;22;19997;-87
2023/11/22 09:56:41;;;;;;;7.88;3.10;;;6.30;99.90;;;;;;6154374;22;20511;-87
2023/11/22 09:59:08;;;;;;;5.45;2.47;;;6.20;99.90;;;;;;6150802;23;20006;-86
2023/11/22 10:01:36;;;;;;;3.53;1.98;;;6.10;99.90;;;;;;6150941;22;20027;-87
2023/11/22 10:04:06;;;;;;;8.82;2.25;;;6.00;99.90;;;;;;6150856;22;20037;-86
2023/11/22 10:06:34;;;;;;;6.57;2.38;;;6.20;99.90;;;;;;6151968;23;20436;-87
2023/11/22 10:09:09;;;;;;;4.97;2.08;;;6.20;99.90;;;;;;6152012;23;20005;-87
2023/11/22 10:11:38;;;;;;;3.70;2.25;;;6.30;99.90;;;;;;6152656;23;20033;-87
2023/11/22 10:14:04;;;;;;;3.65;2.22;;;6.50;99.90;;;;;;6152398;22;20009;-87
2023/11/22 10:16:30;;;;;;;6.40;2.03;;;6.50;99.90;;;;;;6151544;22;20017;-87
2023/11/22 10:18:58;;;;;;;3.10;1.85;;;6.50;99.90;;;;;;6152377;22;19998;-86
2023/11/22 10:21:30;;;;;;;4.80;2.22;;;6.40;99.90;;;;;;6152018;23;20772;-86
2023/11/22 10:23:57;;;;;;;3.88;2.22;;;6.40;99.90;;;;;;6152093;23;20088;-86
2023/11/22 10:26:24;;;;;;;3.78;2.03;;;6.30;99.90;;;;;;6152075;23;20093;-87
2023/11/22 10:28:56;;;;;;;4.75;2.35;;;6.20;99.90;;;;;;6152345;23;20009;-87
2023/11/22 10:31:23;;;;;;;3.88;2.08;;;6.30;99.90;;;;;;6153182;23;20010;-87
2023/11/22 10:33:49;;;;;;;10.98;2.30;;;6.40;99.90;;;;;;6152522;23;20037;-86
2023/11/22 10:36:16;;;;;;;3.80;2.15;;;6.40;99.90;;;;;;6152318;23;20606;-87
2023/11/22 10:38:46;;;;;;;2.53;1.60;;;6.50;99.90;;;;;;6153077;23;20217;-87
2023/11/22 10:41:13;;;;;;;3.08;1.67;;;6.60;98.50;;;;;;6152974;23;20002;-87
2023/11/22 10:43:41;;;;;;;3.33;1.65;;;6.50;99.40;;;;;;6153239;23;20016;-87
2023/11/22 10:46:09;;;;;;;2.70;1.40;;;6.60;99.40;;;;;;6153011;23;20016;-87
2023/11/22 10:48:36;;;;;;;3.47;1.67;;;6.50;98.70;;;;;;6151906;23;20021;-87
2023/11/22 10:51:04;;;;;;;2.80;1.80;;;6.40;98.50;;;;;;6152579;23;20006;-87
2023/11/22 10:53:42;;;;;;;3.42;1.73;;;6.50;99.20;;;;;;6152376;22;20019;-87
2023/11/22 10:56:15;;;;;;;3.97;1.70;;;6.70;99.70;;;;;;6155658;23;20001;-87
2023/11/22 10:59:07;;;;;;;3.53;1.58;;;6.60;98.80;;;;;;6152850;23;20002;-87
2023/11/22 11:01:34;;;;;;;6.22;1.50;;;6.50;97.40;;;;;;6151861;22;20012;-87
2023/11/22 11:04:13;;;;;;;2.22;1.48;;;6.70;96.60;;;;;;6152025;23;20009;-86
2023/11/22 11:06:43;;;;;;;2.47;1.40;;;6.80;96.00;;;;;;6152276;22;20013;-87
2023/11/22 11:09:10;;;;;;;2.95;1.80;;;6.80;96.70;;;;;;6152651;23;20005;-87
2023/11/22 11:11:38;;;;;;;2.65;1.77;;;6.80;96.30;;;;;;6152467;23;20032;-86
2023/11/22 11:14:07;;;;;;;15.82;8.25;;;6.70;97.00;;;;;;6152525;23;20334;-87
2023/11/22 11:16:47;;;;;;;3.60;1.92;;;6.60;96.90;;;;;;6152376;23;20014;-87
2023/11/22 11:19:14;;;;;;;4.97;2.28;;;6.80;97.30;;;;;;6152391;23;20029;-87
2023/11/22 11:21:40;;;;;;;4.60;2.60;;;6.70;98.00;;;;;;6152197;23;20029;-87
2023/11/22 11:24:07;;;;;;;6.97;2.60;;;6.70;98.10;;;;;;6153262;23;20068;-87
2023/11/22 11:26:36;;;;;;;2.38;1.80;;;6.70;98.10;;;;;;6055516;22;20079;-87
2023/11/22 11:29:03;;;;;;;3.78;1.90;;;6.60;96.80;;;;;;6154259;23;20478;-87
2023/11/22 11:31:36;;;;;;;3.47;1.60;;;6.60;97.40;;;;;;6153966;23;20005;-85
2023/11/22 11:34:06;;;;;;;4.33;2.10;;;6.60;98.00;;;;;;6153328;23;20033;-86
2023/11/22 11:36:32;;;;;;;3.03;1.70;;;6.60;98.60;;;;;;6153201;23;20260;-87
2023/11/22 11:39:03;;;;;;;6.65;2.90;;;6.50;97.80;;;;;;6154141;23;20016;-85
2023/11/22 11:41:33;;;;;;;2.78;1.60;;;6.40;99.10;;;;;;6155344;22;20059;-87
2023/11/22 11:44:01;;;;;;;5.15;2.28;;;6.30;97.30;;;;;;6153907;23;20002;-86
2023/11/22 11:46:29;;;;;;;3.85;2.17;;;6.40;98.20;;;;;;6153140;23;20005;-87
2023/11/22 11:48:55;;;;;;;2.95;1.92;;;6.40;99.60;;;;;;6152965;22;20062;-87
2023/11/22 11:51:25;;;;;;;7.65;2.00;;;6.40;99.70;;;;;;6152728;23;20024;-87
2023/11/22 11:53:51;;;;;;;2.58;1.63;;;6.40;97.80;;;;;;6152893;23;20059;-87
2023/11/22 11:56:18;;;;;;;5.13;1.67;;;6.40;98.70;;;;;;6156867;23;20013;-87
2023/11/22 11:58:46;;;;;;;3.13;1.42;;;6.50;98.60;;;;;;6163073;23;20016;-87
2023/11/22 12:01:13;;;;;;;3.03;1.50;;;6.60;98.20;;;;;;6164560;23;20009;-86
2023/11/22 12:03:39;;;;;;;2.83;1.83;;;6.60;98.50;;;;;;6163775;23;20061;-87
2023/11/22 12:06:06;;;;;;;5.20;2.15;;;6.60;98.10;;;;;;6162587;22;20009;-87
2023/11/22 12:08:36;;;;;;;3.70;1.70;;;6.60;98.40;;;;;;6164134;23;20006;-87
2023/11/22 12:11:08;;;;;;;4.80;1.77;;;6.60;97.40;;;;;;6166476;23;20012;-87
2023/11/22 12:13:35;;;;;;;5.88;1.98;;;6.60;97.30;;;;;;6166471;23;20093;-88
2023/11/22 12:16:05;;;;;;;3.58;1.92;;;6.60;97.40;;;;;;6169138;23;20001;-87
2023/11/22 12:18:40;;;;;;;6.80;1.80;;;6.60;97.40;;;;;;6167602;23;20005;-87
2023/11/22 12:21:06;;;;;;;2.53;1.05;;;6.70;96.60;;;;;;6163158;23;20009;-87
2023/11/22 12:23:35;;;;;;;2.58;1.70;;;6.80;96.50;;;;;;6160779;23;20009;-87
2023/11/22 12:26:02;;;;;;;2.88;1.40;;;6.80;97.60;;;;;;6170720;22;20009;-87
2023/11/22 12:28:29;;;;;;;2.38;1.60;;;6.70;96.60;;;;;;6169745;22;20027;-86
2023/11/22 12:31:05;;;;;;;2.65;1.80;;;6.50;97.50;;;;;;6169368;23;20001;-87
2023/11/22 12:33:31;;;;;;;3.60;2.05;;;6.40;97.80;;;;;;6170542;23;20078;-86
2023/11/22 12:35:57;;;;;;;3.60;1.73;;;6.30;98.70;;;;;;6171947;22;20002;-87
2023/11/22 12:38:26;;;;;;;3.05;1.50;;;6.00;99.50;;;;;;6163136;23;20008;-87
2023/11/22 12:40:52;;;;;;;3.28;1.65;;;5.90;99.10;;;;;;6163118;23;20001;-87
2023/11/22 12:43:17;;;;;;;2.28;1.50;;;5.90;99.90;;;;;;6159526;23;20083;-87
2023/11/22 12:45:45;;;;;;;2.63;1.65;;;5.80;99.90;;;;;;6136453;22;20026;-87
2023/11/22 12:48:24;;;;;;;3.08;1.58;;;5.80;99.90;;;;;;6152478;23;20009;-87
2023/11/22 12:50:52;;;;;;;3.15;1.60;;;5.80;99.90;;;;;;6152550;23;20028;-87